sensor_id;sensor_type;location;lat;lon;timestamp;temperature;humidity
4896;DHT22;2463;49.948;8.472;2022-08-01T00:00:05;23.70;99.90
4896;DHT22;2463;49.948;8.472;2022-08-01T00:02:35;23.60;99.90
4896;DHT22;2463;49.948;8.472;2022-08-01T00:05:02;23.70;99.90
4896;DHT22;2463;49.948;8.472;2022-08-01T00:07:29;23.70;99.90
4896;DHT22;2463;49.948;8.472;2022-08-01T00:09:55;23.70;99.90
4896;DHT22;2463;49.948;8.472;2022-08-01T00:12:22;23.80;99.90
4896;DHT22;2463;49.948;8.472;2022-08-01T00:14:49;23.70;99.90
4896;DHT22;2463;49.948;8.472;2022-08-01T00:17:16;23.70;99.90
4896;DHT22;2463;49.948;8.472;2022-08-01T00:19:42;23.80;99.90
4896;DHT22;2463;49.948;8.472;2022-08-01T00:22:09;23.90;99.90
4896;DHT22;2463;49.948;8.472;2022-08-01T00:24:36;23.90;99.90
4896;DHT22;2463;49.948;8.472;2022-08-01T00:27:03;23.90;99.90
4896;DHT22;2463;49.948;8.472;2022-08-01T00:29:29;23.90;99.90
4896;DHT22;2463;49.948;8.472;2022-08-01T00:32:16;23.90;99.90
4896;DHT22;2463;49.948;8.472;2022-08-01T00:34:43;23.80;99.90
4896;DHT22;2463;49.948;8.472;2022-08-01T00:37:10;23.80;99.90
4896;DHT22;2463;49.948;8.472;2022-08-01T00:39:41;23.80;99.90
4896;DHT22;2463;49.948;8.472;2022-08-01T00:42:12;23.80;99.90
4896;DHT22;2463;49.948;8.472;2022-08-01T00:44:39;23.90;99.90
4896;DHT22;2463;49.948;8.472;2022-08-01T00:47:07;23.80;99.90
4896;DHT22;2463;49.948;8.472;2022-08-01T00:49:34;23.80;99.90
4896;DHT22;2463;49.948;8.472;2022-08-01T00:52:02;23.80;99.90
4896;DHT22;2463;49.948;8.472;2022-08-01T00:54:32;23.80;99.90
4896;DHT22;2463;49.948;8.472;2022-08-01T00:56:59;23.80;99.90
4896;DHT22;2463;49.948;8.472;2022-08-01T00:59:26;23.70;99.90
4896;DHT22;2463;49.948;8.472;2022-08-01T01:01:53;23.70;99.90
4896;DHT22;2463;49.948;8.472;2022-08-01T01:04:20;23.70;99.90
4896;DHT22;2463;49.948;8.472;2022-08-01T01:06:57;23.60;99.90
4896;DHT22;2463;49.948;8.472;2022-08-01T01:09:46;23.60;99.90
4896;DHT22;2463;49.948;8.472;2022-08-01T01:12:44;23.60;99.90
4896;DHT22;2463;49.948;8.472;2022-08-01T01:15:30;23.50;99.90
4896;DHT22;2463;49.948;8.472;2022-08-01T01:18:20;23.40;99.90
4896;DHT22;2463;49.948;8.472;2022-08-01T01:21:00;23.40;99.90
4896;DHT22;2463;49.948;8.472;2022-08-01T01:23:34;23.30;99.90
4896;DHT22;2463;49.948;8.472;2022-08-01T01:29:16;23.20;99.90
4896;DHT22;2463;49.948;8.472;2022-08-01T01:31:48;23.00;99.90
4896;DHT22;2463;49.948;8.472;2022-08-01T01:34:17;23.00;99.90
4896;DHT22;2463;49.948;8.472;2022-08-01T01:36:46;22.90;99.90
4896;DHT22;2463;49.948;8.472;2022-08-01T01:39:14;22.80;99.90
4896;DHT22;2463;49.948;8.472;2022-08-01T01:41:43;22.80;99.90
4896;DHT22;2463;49.948;8.472;2022-08-01T01:44:11;22.70;99.90
4896;DHT22;2463;49.948;8.472;2022-08-01T01:46:38;22.70;99.90
4896;DHT22;2463;49.948;8.472;2022-08-01T01:49:07;22.60;99.90
4896;DHT22;2463;49.948;8.472;2022-08-01T01:51:38;22.50;99.90
4896;DHT22;2463;49.948;8.472;2022-08-01T01:54:06;22.40;99.90
4896;DHT22;2463;49.948;8.472;2022-08-01T01:56:35;22.30;99.90
4896;DHT22;2463;49.948;8.472;2022-08-01T01:59:20;22.10;99.90
4896;DHT22;2463;49.948;8.472;2022-08-01T02:01:52;22.00;99.90
4896;DHT22;2463;49.948;8.472;2022-08-01T02:04:33;21.90;99.90
4896;DHT22;2463;49.948;8.472;2022-08-01T02:07:03;21.80;99.90
4896;DHT22;2463;49.948;8.472;2022-08-01T02:09:30;21.80;99.90
4896;DHT22;2463;49.948;8.472;2022-08-01T02:11:59;21.80;99.90
4896;DHT22;2463;49.948;8.472;2022-08-01T02:14:35;21.70;99.90
4896;DHT22;2463;49.948;8.472;2022-08-01T02:17:02;21.70;99.90
4896;DHT22;2463;49.948;8.472;2022-08-01T02:19:32;21.70;99.90
4896;DHT22;2463;49.948;8.472;2022-08-01T02:24:57;21.40;99.90
4896;DHT22;2463;49.948;8.472;2022-08-01T02:27:29;21.40;99.90
4896;DHT22;2463;49.948;8.472;2022-08-01T02:30:03;21.30;99.90
4896;DHT22;2463;49.948;8.472;2022-08-01T02:32:46;21.30;99.90
4896;DHT22;2463;49.948;8.472;2022-08-01T02:35:26;21.30;99.90
4896;DHT22;2463;49.948;8.472;2022-08-01T02:37:55;21.30;99.90
4896;DHT22;2463;49.948;8.472;2022-08-01T02:40:23;21.30;99.90
4896;DHT22;2463;49.948;8.472;2022-08-01T02:42:54;21.20;99.90
4896;DHT22;2463;49.948;8.472;2022-08-01T02:45:25;21.30;99.90
4896;DHT22;2463;49.948;8.472;2022-08-01T02:47:57;21.20;99.90
4896;DHT22;2463;49.948;8.472;2022-08-01T02:50:26;21.20;99.90
4896;DHT22;2463;49.948;8.472;2022-08-01T02:52:55;21.20;99.90
4896;DHT22;2463;49.948;8.472;2022-08-01T02:55:23;21.20;99.90
4896;DHT22;2463;49.948;8.472;2022-08-01T02:57:53;21.20;99.90
4896;DHT22;2463;49.948;8.472;2022-08-01T03:00:26;21.20;99.90
4896;DHT22;2463;49.948;8.472;2022-08-01T03:02:54;21.10;99.90
4896;DHT22;2463;49.948;8.472;2022-08-01T03:05:24;21.10;99.90
4896;DHT22;2463;49.948;8.472;2022-08-01T03:07:54;21.10;99.90
4896;DHT22;2463;49.948;8.472;2022-08-01T03:10:28;21.00;99.90
4896;DHT22;2463;49.948;8.472;2022-08-01T03:12:57;20.90;99.90
4896;DHT22;2463;49.948;8.472;2022-08-01T03:15:26;21.00;99.90
4896;DHT22;2463;49.948;8.472;2022-08-01T03:17:57;20.90;99.90
4896;DHT22;2463;49.948;8.472;2022-08-01T03:20:25;20.80;99.90
4896;DHT22;2463;49.948;8.472;2022-08-01T03:22:53;20.70;99.90
4896;DHT22;2463;49.948;8.472;2022-08-01T03:25:21;20.70;99.90
4896;DHT22;2463;49.948;8.472;2022-08-01T03:27:56;20.60;99.90
4896;DHT22;2463;49.948;8.472;2022-08-01T03:30:25;20.60;99.90
4896;DHT22;2463;49.948;8.472;2022-08-01T03:32:53;20.60;99.90
4896;DHT22;2463;49.948;8.472;2022-08-01T03:35:22;20.50;99.90
4896;DHT22;2463;49.948;8.472;2022-08-01T03:37:52;20.30;99.90
4896;DHT22;2463;49.948;8.472;2022-08-01T03:40:49;20.40;99.90
4896;DHT22;2463;49.948;8.472;2022-08-01T03:43:24;20.30;99.90
4896;DHT22;2463;49.948;8.472;2022-08-01T03:45:53;20.30;99.90
4896;DHT22;2463;49.948;8.472;2022-08-01T03:48:24;20.40;99.90
4896;DHT22;2463;49.948;8.472;2022-08-01T03:50:55;20.40;99.90
4896;DHT22;2463;49.948;8.472;2022-08-01T03:53:24;20.40;99.90
4896;DHT22;2463;49.948;8.472;2022-08-01T03:55:52;20.30;99.90
4896;DHT22;2463;49.948;8.472;2022-08-01T03:58:21;20.30;99.90
4896;DHT22;2463;49.948;8.472;2022-08-01T04:00:48;20.20;99.90
4896;DHT22;2463;49.948;8.472;2022-08-01T04:03:16;20.00;99.90
4896;DHT22;2463;49.948;8.472;2022-08-01T04:05:43;20.10;99.90
4896;DHT22;2463;49.948;8.472;2022-08-01T04:08:10;19.90;99.90
4896;DHT22;2463;49.948;8.472;2022-08-01T04:10:37;19.90;99.90
4896;DHT22;2463;49.948;8.472;2022-08-01T04:13:04;19.90;99.90
4896;DHT22;2463;49.948;8.472;2022-08-01T04:15:30;19.90;99.90
4896;DHT22;2463;49.948;8.472;2022-08-01T04:17:57;19.90;99.90
4896;DHT22;2463;49.948;8.472;2022-08-01T04:20:24;19.80;99.90
4896;DHT22;2463;49.948;8.472;2022-08-01T04:22:51;19.80;99.90
4896;DHT22;2463;49.948;8.472;2022-08-01T04:25:34;19.70;99.90
4896;DHT22;2463;49.948;8.472;2022-08-01T04:28:02;19.70;99.90
4896;DHT22;2463;49.948;8.472;2022-08-01T04:30:32;19.60;99.90
4896;DHT22;2463;49.948;8.472;2022-08-01T04:33:01;19.60;99.90
4896;DHT22;2463;49.948;8.472;2022-08-01T04:35:29;19.60;99.90
4896;DHT22;2463;49.948;8.472;2022-08-01T04:38:20;19.70;99.90
4896;DHT22;2463;49.948;8.472;2022-08-01T04:40:50;19.70;99.90
4896;DHT22;2463;49.948;8.472;2022-08-01T04:43:18;19.80;99.90
4896;DHT22;2463;49.948;8.472;2022-08-01T04:45:46;19.80;99.90
4896;DHT22;2463;49.948;8.472;2022-08-01T04:48:17;19.80;99.90
4896;DHT22;2463;49.948;8.472;2022-08-01T04:50:48;19.90;99.90
4896;DHT22;2463;49.948;8.472;2022-08-01T04:53:17;19.90;99.90
4896;DHT22;2463;49.948;8.472;2022-08-01T04:55:45;19.80;99.90
4896;DHT22;2463;49.948;8.472;2022-08-01T04:58:15;19.90;99.90
4896;DHT22;2463;49.948;8.472;2022-08-01T05:00:47;20.00;99.90
4896;DHT22;2463;49.948;8.472;2022-08-01T05:03:14;20.10;99.90
4896;DHT22;2463;49.948;8.472;2022-08-01T05:05:41;20.10;99.90
4896;DHT22;2463;49.948;8.472;2022-08-01T05:08:08;20.20;99.90
4896;DHT22;2463;49.948;8.472;2022-08-01T05:10:34;20.20;99.90
4896;DHT22;2463;49.948;8.472;2022-08-01T05:13:01;20.30;99.90
4896;DHT22;2463;49.948;8.472;2022-08-01T05:15:28;20.40;99.90
4896;DHT22;2463;49.948;8.472;2022-08-01T05:17:55;20.40;99.90
4896;DHT22;2463;49.948;8.472;2022-08-01T05:20:23;20.30;99.90
4896;DHT22;2463;49.948;8.472;2022-08-01T05:22:49;20.30;99.90
4896;DHT22;2463;49.948;8.472;2022-08-01T05:25:16;20.40;99.90
4896;DHT22;2463;49.948;8.472;2022-08-01T05:27:46;20.50;99.90
4896;DHT22;2463;49.948;8.472;2022-08-01T05:30:14;20.60;99.90
4896;DHT22;2463;49.948;8.472;2022-08-01T05:32:41;20.80;99.90
4896;DHT22;2463;49.948;8.472;2022-08-01T05:35:08;20.90;99.90
4896;DHT22;2463;49.948;8.472;2022-08-01T05:37:35;21.00;99.90
4896;DHT22;2463;49.948;8.472;2022-08-01T05:40:02;21.00;99.90
4896;DHT22;2463;49.948;8.472;2022-08-01T05:42:30;21.10;99.90
4896;DHT22;2463;49.948;8.472;2022-08-01T05:44:56;21.20;99.90
4896;DHT22;2463;49.948;8.472;2022-08-01T05:47:23;21.30;99.90
4896;DHT22;2463;49.948;8.472;2022-08-01T05:49:50;21.40;99.90
4896;DHT22;2463;49.948;8.472;2022-08-01T05:52:17;21.50;99.90
4896;DHT22;2463;49.948;8.472;2022-08-01T05:54:43;21.70;99.90
4896;DHT22;2463;49.948;8.472;2022-08-01T05:57:10;21.70;99.90
4896;DHT22;2463;49.948;8.472;2022-08-01T05:59:38;21.90;99.90
4896;DHT22;2463;49.948;8.472;2022-08-01T06:02:04;22.00;99.90
4896;DHT22;2463;49.948;8.472;2022-08-01T06:04:31;22.20;99.90
4896;DHT22;2463;49.948;8.472;2022-08-01T06:06:58;22.40;99.90
4896;DHT22;2463;49.948;8.472;2022-08-01T06:09:25;22.50;99.90
4896;DHT22;2463;49.948;8.472;2022-08-01T06:11:52;22.60;99.90
4896;DHT22;2463;49.948;8.472;2022-08-01T06:14:18;22.70;99.90
4896;DHT22;2463;49.948;8.472;2022-08-01T06:16:45;22.80;99.90
4896;DHT22;2463;49.948;8.472;2022-08-01T06:19:12;22.80;99.90
4896;DHT22;2463;49.948;8.472;2022-08-01T06:21:39;22.90;99.90
4896;DHT22;2463;49.948;8.472;2022-08-01T06:24:05;23.10;99.90
4896;DHT22;2463;49.948;8.472;2022-08-01T06:26:32;23.20;99.90
4896;DHT22;2463;49.948;8.472;2022-08-01T06:28:59;23.40;99.90
4896;DHT22;2463;49.948;8.472;2022-08-01T06:31:26;23.40;99.90
4896;DHT22;2463;49.948;8.472;2022-08-01T06:33:58;23.50;99.90
4896;DHT22;2463;49.948;8.472;2022-08-01T06:36:25;23.60;99.90
4896;DHT22;2463;49.948;8.472;2022-08-01T06:38:52;23.80;99.90
4896;DHT22;2463;49.948;8.472;2022-08-01T06:41:19;23.80;99.90
4896;DHT22;2463;49.948;8.472;2022-08-01T06:43:45;23.90;99.90
4896;DHT22;2463;49.948;8.472;2022-08-01T06:46:12;24.00;99.90
4896;DHT22;2463;49.948;8.472;2022-08-01T06:48:39;24.10;99.90
4896;DHT22;2463;49.948;8.472;2022-08-01T06:51:06;24.20;99.90
4896;DHT22;2463;49.948;8.472;2022-08-01T06:53:37;24.30;99.90
4896;DHT22;2463;49.948;8.472;2022-08-01T06:56:05;25.20;99.90
4896;DHT22;2463;49.948;8.472;2022-08-01T06:58:32;26.70;99.90
4896;DHT22;2463;49.948;8.472;2022-08-01T07:01:02;27.90;99.90
4896;DHT22;2463;49.948;8.472;2022-08-01T07:03:30;29.50;99.90
4896;DHT22;2463;49.948;8.472;2022-08-01T07:06:17;30.80;99.90
4896;DHT22;2463;49.948;8.472;2022-08-01T07:08:44;31.70;99.90
4896;DHT22;2463;49.948;8.472;2022-08-01T07:11:11;31.90;99.90
4896;DHT22;2463;49.948;8.472;2022-08-01T07:13:37;32.70;99.90
4896;DHT22;2463;49.948;8.472;2022-08-01T07:16:11;33.80;99.10
4896;DHT22;2463;49.948;8.472;2022-08-01T07:18:38;34.00;97.60
4896;DHT22;2463;49.948;8.472;2022-08-01T07:21:05;34.10;97.20
4896;DHT22;2463;49.948;8.472;2022-08-01T07:23:42;34.30;96.00
4896;DHT22;2463;49.948;8.472;2022-08-01T07:26:11;34.10;94.40
4896;DHT22;2463;49.948;8.472;2022-08-01T07:28:39;33.60;94.70
4896;DHT22;2463;49.948;8.472;2022-08-01T07:31:09;33.40;94.80
4896;DHT22;2463;49.948;8.472;2022-08-01T07:33:36;33.40;95.90
4896;DHT22;2463;49.948;8.472;2022-08-01T07:36:18;33.40;94.90
4896;DHT22;2463;49.948;8.472;2022-08-01T07:38:45;33.00;93.50
4896;DHT22;2463;49.948;8.472;2022-08-01T07:41:12;32.40;94.10
4896;DHT22;2463;49.948;8.472;2022-08-01T07:43:39;31.80;94.60
4896;DHT22;2463;49.948;8.472;2022-08-01T07:46:07;31.20;95.10
4896;DHT22;2463;49.948;8.472;2022-08-01T07:48:34;30.30;96.20
4896;DHT22;2463;49.948;8.472;2022-08-01T07:51:00;29.60;97.10
4896;DHT22;2463;49.948;8.472;2022-08-01T07:53:27;29.10;97.70
4896;DHT22;2463;49.948;8.472;2022-08-01T07:55:55;28.70;98.80
4896;DHT22;2463;49.948;8.472;2022-08-01T07:58:22;28.50;99.90
4896;DHT22;2463;49.948;8.472;2022-08-01T08:00:48;28.30;99.90
4896;DHT22;2463;49.948;8.472;2022-08-01T08:03:15;28.20;99.90
4896;DHT22;2463;49.948;8.472;2022-08-01T08:05:42;28.10;99.90
4896;DHT22;2463;49.948;8.472;2022-08-01T08:08:24;28.00;99.90
4896;DHT22;2463;49.948;8.472;2022-08-01T08:10:51;28.00;99.90
4896;DHT22;2463;49.948;8.472;2022-08-01T08:13:18;28.10;99.90
4896;DHT22;2463;49.948;8.472;2022-08-01T08:15:46;28.40;99.90
4896;DHT22;2463;49.948;8.472;2022-08-01T08:18:14;28.70;99.90
4896;DHT22;2463;49.948;8.472;2022-08-01T08:20:41;28.90;99.90
4896;DHT22;2463;49.948;8.472;2022-08-01T08:23:07;29.00;99.90
4896;DHT22;2463;49.948;8.472;2022-08-01T08:26:10;28.90;99.90
4896;DHT22;2463;49.948;8.472;2022-08-01T08:28:37;28.50;99.90
4896;DHT22;2463;49.948;8.472;2022-08-01T08:31:06;28.20;99.90
4896;DHT22;2463;49.948;8.472;2022-08-01T08:33:51;27.80;99.90
4896;DHT22;2463;49.948;8.472;2022-08-01T08:36:18;27.30;99.90
4896;DHT22;2463;49.948;8.472;2022-08-01T08:38:44;26.90;99.90
4896;DHT22;2463;49.948;8.472;2022-08-01T08:41:12;26.70;99.90
4896;DHT22;2463;49.948;8.472;2022-08-01T08:43:46;26.40;99.90
4896;DHT22;2463;49.948;8.472;2022-08-01T08:46:14;26.50;99.90
4896;DHT22;2463;49.948;8.472;2022-08-01T08:48:41;26.60;99.90
4896;DHT22;2463;49.948;8.472;2022-08-01T08:51:10;26.90;99.90
4896;DHT22;2463;49.948;8.472;2022-08-01T08:53:40;27.30;99.90
4896;DHT22;2463;49.948;8.472;2022-08-01T08:56:12;27.70;99.90
4896;DHT22;2463;49.948;8.472;2022-08-01T08:58:45;27.90;99.90
4896;DHT22;2463;49.948;8.472;2022-08-01T09:01:13;28.00;99.90
4896;DHT22;2463;49.948;8.472;2022-08-01T09:03:40;28.10;99.90
4896;DHT22;2463;49.948;8.472;2022-08-01T09:06:07;28.20;99.90
4896;DHT22;2463;49.948;8.472;2022-08-01T09:08:35;28.60;99.90
4896;DHT22;2463;49.948;8.472;2022-08-01T09:11:03;28.90;99.90
4896;DHT22;2463;49.948;8.472;2022-08-01T09:13:30;29.30;99.90
4896;DHT22;2463;49.948;8.472;2022-08-01T09:15:57;29.60;99.90
4896;DHT22;2463;49.948;8.472;2022-08-01T09:18:33;29.90;99.90
4896;DHT22;2463;49.948;8.472;2022-08-01T09:23:53;30.50;99.90
4896;DHT22;2463;49.948;8.472;2022-08-01T09:26:32;30.50;99.90
4896;DHT22;2463;49.948;8.472;2022-08-01T09:29:05;30.40;99.90
4896;DHT22;2463;49.948;8.472;2022-08-01T09:31:40;30.50;99.90
4896;DHT22;2463;49.948;8.472;2022-08-01T09:34:14;30.90;99.90
4896;DHT22;2463;49.948;8.472;2022-08-01T09:37:07;31.20;99.60
4896;DHT22;2463;49.948;8.472;2022-08-01T09:39:36;31.60;98.60
4896;DHT22;2463;49.948;8.472;2022-08-01T09:42:20;31.80;98.60
4896;DHT22;2463;49.948;8.472;2022-08-01T09:44:54;32.00;97.50
4896;DHT22;2463;49.948;8.472;2022-08-01T09:47:21;31.90;96.80
4896;DHT22;2463;49.948;8.472;2022-08-01T09:49:55;31.60;96.40
4896;DHT22;2463;49.948;8.472;2022-08-01T09:52:26;31.30;97.00
4896;DHT22;2463;49.948;8.472;2022-08-01T09:55:05;31.30;97.20
4896;DHT22;2463;49.948;8.472;2022-08-01T09:57:32;31.20;97.20
4896;DHT22;2463;49.948;8.472;2022-08-01T10:00:00;31.20;97.20
4896;DHT22;2463;49.948;8.472;2022-08-01T10:02:37;31.00;97.40
4896;DHT22;2463;49.948;8.472;2022-08-01T10:05:09;31.00;97.60
4896;DHT22;2463;49.948;8.472;2022-08-01T10:08:01;30.80;97.00
4896;DHT22;2463;49.948;8.472;2022-08-01T10:10:33;30.50;97.10
4896;DHT22;2463;49.948;8.472;2022-08-01T10:13:03;30.20;97.70
4896;DHT22;2463;49.948;8.472;2022-08-01T10:15:30;29.80;97.30
4896;DHT22;2463;49.948;8.472;2022-08-01T10:18:06;29.50;98.10
4896;DHT22;2463;49.948;8.472;2022-08-01T10:20:52;29.20;99.10
4896;DHT22;2463;49.948;8.472;2022-08-01T10:23:25;29.40;99.90
4896;DHT22;2463;49.948;8.472;2022-08-01T10:26:07;30.00;99.90
4896;DHT22;2463;49.948;8.472;2022-08-01T10:28:36;30.20;99.40
4896;DHT22;2463;49.948;8.472;2022-08-01T10:31:07;30.50;99.90
4896;DHT22;2463;49.948;8.472;2022-08-01T10:33:40;30.90;98.20
4896;DHT22;2463;49.948;8.472;2022-08-01T10:36:21;31.30;98.80
4896;DHT22;2463;49.948;8.472;2022-08-01T10:38:52;31.80;97.10
4896;DHT22;2463;49.948;8.472;2022-08-01T10:41:20;32.00;95.80
4896;DHT22;2463;49.948;8.472;2022-08-01T10:43:48;32.10;95.60
4896;DHT22;2463;49.948;8.472;2022-08-01T10:46:15;32.40;95.00
4896;DHT22;2463;49.948;8.472;2022-08-01T10:51:20;32.40;96.40
4896;DHT22;2463;49.948;8.472;2022-08-01T10:53:53;32.50;97.20
4896;DHT22;2463;49.948;8.472;2022-08-01T10:56:23;33.00;96.80
4896;DHT22;2463;49.948;8.472;2022-08-01T10:59:00;33.60;96.10
4896;DHT22;2463;49.948;8.472;2022-08-01T11:01:32;33.90;92.90
4896;DHT22;2463;49.948;8.472;2022-08-01T11:04:09;33.60;92.80
4896;DHT22;2463;49.948;8.472;2022-08-01T11:09:39;33.50;93.80
4896;DHT22;2463;49.948;8.472;2022-08-01T11:17:36;34.00;90.80
4896;DHT22;2463;49.948;8.472;2022-08-01T11:20:22;33.80;91.20
4896;DHT22;2463;49.948;8.472;2022-08-01T11:28:26;34.90;91.30
4896;DHT22;2463;49.948;8.472;2022-08-01T11:41:17;34.50;87.20
4896;DHT22;2463;49.948;8.472;2022-08-01T11:44:08;34.70;87.50
4896;DHT22;2463;49.948;8.472;2022-08-01T11:47:00;34.40;90.00
4896;DHT22;2463;49.948;8.472;2022-08-01T11:52:18;34.40;87.40
4896;DHT22;2463;49.948;8.472;2022-08-01T11:55:12;34.20;87.10
4896;DHT22;2463;49.948;8.472;2022-08-01T11:57:42;34.10;85.40
4896;DHT22;2463;49.948;8.472;2022-08-01T12:00:17;34.10;87.00
4896;DHT22;2463;49.948;8.472;2022-08-01T12:03:00;34.10;88.20
4896;DHT22;2463;49.948;8.472;2022-08-01T12:05:31;34.50;88.60
4896;DHT22;2463;49.948;8.472;2022-08-01T12:08:00;34.90;88.30
4896;DHT22;2463;49.948;8.472;2022-08-01T12:10:29;35.20;86.00
4896;DHT22;2463;49.948;8.472;2022-08-01T12:13:12;35.20;85.00
4896;DHT22;2463;49.948;8.472;2022-08-01T12:15:39;35.50;85.10
4896;DHT22;2463;49.948;8.472;2022-08-01T12:18:07;35.80;82.10
4896;DHT22;2463;49.948;8.472;2022-08-01T12:20:42;35.70;79.10
4896;DHT22;2463;49.948;8.472;2022-08-01T12:23:22;34.90;79.10
4896;DHT22;2463;49.948;8.472;2022-08-01T12:25:52;34.80;82.70
4896;DHT22;2463;49.948;8.472;2022-08-01T12:28:20;35.10;82.90
4896;DHT22;2463;49.948;8.472;2022-08-01T12:30:48;35.10;81.50
4896;DHT22;2463;49.948;8.472;2022-08-01T12:33:17;35.30;81.80
4896;DHT22;2463;49.948;8.472;2022-08-01T12:35:46;35.70;81.80
4896;DHT22;2463;49.948;8.472;2022-08-01T12:38:15;36.10;81.00
4896;DHT22;2463;49.948;8.472;2022-08-01T12:40:44;36.40;80.70
4896;DHT22;2463;49.948;8.472;2022-08-01T12:43:19;36.60;79.30
4896;DHT22;2463;49.948;8.472;2022-08-01T12:45:55;36.70;77.40
4896;DHT22;2463;49.948;8.472;2022-08-01T12:48:24;36.80;77.50
4896;DHT22;2463;49.948;8.472;2022-08-01T12:50:52;36.90;76.90
4896;DHT22;2463;49.948;8.472;2022-08-01T12:53:20;36.70;74.20
4896;DHT22;2463;49.948;8.472;2022-08-01T12:55:53;36.30;76.10
4896;DHT22;2463;49.948;8.472;2022-08-01T12:58:31;36.10;76.20
4896;DHT22;2463;49.948;8.472;2022-08-01T13:01:06;35.80;76.70
4896;DHT22;2463;49.948;8.472;2022-08-01T13:03:33;35.60;76.60
4896;DHT22;2463;49.948;8.472;2022-08-01T13:06:00;35.50;78.10
4896;DHT22;2463;49.948;8.472;2022-08-01T13:08:32;35.40;76.10
4896;DHT22;2463;49.948;8.472;2022-08-01T13:11:05;35.10;76.90
4896;DHT22;2463;49.948;8.472;2022-08-01T13:13:41;34.90;76.50
4896;DHT22;2463;49.948;8.472;2022-08-01T13:16:09;34.70;76.90
4896;DHT22;2463;49.948;8.472;2022-08-01T13:18:49;34.60;77.90
4896;DHT22;2463;49.948;8.472;2022-08-01T13:21:19;34.40;77.70
4896;DHT22;2463;49.948;8.472;2022-08-01T13:24:10;34.20;77.40
4896;DHT22;2463;49.948;8.472;2022-08-01T13:26:46;34.20;79.50
4896;DHT22;2463;49.948;8.472;2022-08-01T13:29:15;34.30;78.50
4896;DHT22;2463;49.948;8.472;2022-08-01T13:31:42;34.40;79.10
4896;DHT22;2463;49.948;8.472;2022-08-01T13:34:09;34.40;79.00
4896;DHT22;2463;49.948;8.472;2022-08-01T13:36:37;34.50;78.70
4896;DHT22;2463;49.948;8.472;2022-08-01T13:39:05;34.60;77.70
4896;DHT22;2463;49.948;8.472;2022-08-01T13:41:57;34.70;78.70
4896;DHT22;2463;49.948;8.472;2022-08-01T13:44:24;34.70;78.70
4896;DHT22;2463;49.948;8.472;2022-08-01T13:46:51;34.70;78.30
4896;DHT22;2463;49.948;8.472;2022-08-01T13:49:18;34.60;78.60
4896;DHT22;2463;49.948;8.472;2022-08-01T13:51:45;34.50;78.70
4896;DHT22;2463;49.948;8.472;2022-08-01T13:54:13;34.40;78.50
4896;DHT22;2463;49.948;8.472;2022-08-01T13:56:39;34.40;79.80
4896;DHT22;2463;49.948;8.472;2022-08-01T13:59:06;34.20;79.90
4896;DHT22;2463;49.948;8.472;2022-08-01T14:01:33;34.20;78.90
4896;DHT22;2463;49.948;8.472;2022-08-01T14:04:01;34.10;78.00
4896;DHT22;2463;49.948;8.472;2022-08-01T14:06:29;34.10;79.60
4896;DHT22;2463;49.948;8.472;2022-08-01T14:08:56;34.10;79.70
4896;DHT22;2463;49.948;8.472;2022-08-01T14:11:22;34.20;79.40
4896;DHT22;2463;49.948;8.472;2022-08-01T14:13:50;34.00;79.40
4896;DHT22;2463;49.948;8.472;2022-08-01T14:16:17;33.90;80.50
4896;DHT22;2463;49.948;8.472;2022-08-01T14:18:45;33.80;78.40
4896;DHT22;2463;49.948;8.472;2022-08-01T14:21:12;33.70;79.10
4896;DHT22;2463;49.948;8.472;2022-08-01T14:23:39;33.60;78.70
4896;DHT22;2463;49.948;8.472;2022-08-01T14:26:06;33.50;81.00
4896;DHT22;2463;49.948;8.472;2022-08-01T14:28:38;33.40;81.60
4896;DHT22;2463;49.948;8.472;2022-08-01T14:31:05;33.20;81.70
4896;DHT22;2463;49.948;8.472;2022-08-01T14:33:33;33.10;80.80
4896;DHT22;2463;49.948;8.472;2022-08-01T14:36:00;33.10;81.60
4896;DHT22;2463;49.948;8.472;2022-08-01T14:38:46;33.10;80.40
4896;DHT22;2463;49.948;8.472;2022-08-01T14:41:14;33.10;80.70
4896;DHT22;2463;49.948;8.472;2022-08-01T14:43:41;32.90;81.90
4896;DHT22;2463;49.948;8.472;2022-08-01T14:46:08;32.90;81.40
4896;DHT22;2463;49.948;8.472;2022-08-01T14:48:36;32.80;81.60
4896;DHT22;2463;49.948;8.472;2022-08-01T14:51:03;32.70;82.00
4896;DHT22;2463;49.948;8.472;2022-08-01T14:53:31;32.60;82.20
4896;DHT22;2463;49.948;8.472;2022-08-01T14:56:02;32.40;82.70
4896;DHT22;2463;49.948;8.472;2022-08-01T14:58:29;32.20;80.70
4896;DHT22;2463;49.948;8.472;2022-08-01T15:00:55;32.10;81.00
4896;DHT22;2463;49.948;8.472;2022-08-01T15:03:24;31.80;81.40
4896;DHT22;2463;49.948;8.472;2022-08-01T15:05:51;31.60;81.70
4896;DHT22;2463;49.948;8.472;2022-08-01T15:08:18;31.40;82.20
4896;DHT22;2463;49.948;8.472;2022-08-01T15:10:45;31.10;81.90
4896;DHT22;2463;49.948;8.472;2022-08-01T15:13:11;31.00;82.90
4896;DHT22;2463;49.948;8.472;2022-08-01T15:15:38;30.80;83.20
4896;DHT22;2463;49.948;8.472;2022-08-01T15:18:05;30.40;86.30
4896;DHT22;2463;49.948;8.472;2022-08-01T15:20:31;29.70;90.10
4896;DHT22;2463;49.948;8.472;2022-08-01T15:22:59;28.90;91.90
4896;DHT22;2463;49.948;8.472;2022-08-01T15:25:26;28.40;92.80
4896;DHT22;2463;49.948;8.472;2022-08-01T15:28:11;27.90;94.60
4896;DHT22;2463;49.948;8.472;2022-08-01T15:30:38;27.60;97.10
4896;DHT22;2463;49.948;8.472;2022-08-01T15:33:05;26.90;99.90
4896;DHT22;2463;49.948;8.472;2022-08-01T15:35:33;26.40;99.90
4896;DHT22;2463;49.948;8.472;2022-08-01T15:37:59;26.10;99.90
4896;DHT22;2463;49.948;8.472;2022-08-01T15:40:26;25.60;99.90
4896;DHT22;2463;49.948;8.472;2022-08-01T15:42:54;25.20;99.90
4896;DHT22;2463;49.948;8.472;2022-08-01T15:45:21;25.00;99.90
4896;DHT22;2463;49.948;8.472;2022-08-01T15:48:08;24.80;99.90
4896;DHT22;2463;49.948;8.472;2022-08-01T15:50:35;24.70;99.90
4896;DHT22;2463;49.948;8.472;2022-08-01T15:53:04;24.60;99.90
4896;DHT22;2463;49.948;8.472;2022-08-01T15:55:35;24.70;99.90
4896;DHT22;2463;49.948;8.472;2022-08-01T15:58:03;24.80;99.90
4896;DHT22;2463;49.948;8.472;2022-08-01T16:00:31;24.80;99.90
4896;DHT22;2463;49.948;8.472;2022-08-01T16:03:05;24.80;99.90
4896;DHT22;2463;49.948;8.472;2022-08-01T16:05:32;24.80;99.90
4896;DHT22;2463;49.948;8.472;2022-08-01T16:07:58;24.80;99.90
4896;DHT22;2463;49.948;8.472;2022-08-01T16:10:28;24.80;99.90
4896;DHT22;2463;49.948;8.472;2022-08-01T16:12:55;24.80;99.90
4896;DHT22;2463;49.948;8.472;2022-08-01T16:15:22;24.90;99.90
4896;DHT22;2463;49.948;8.472;2022-08-01T16:18:03;25.00;99.90
4896;DHT22;2463;49.948;8.472;2022-08-01T16:20:31;25.00;99.90
4896;DHT22;2463;49.948;8.472;2022-08-01T16:22:57;25.20;99.90
4896;DHT22;2463;49.948;8.472;2022-08-01T16:25:24;25.30;99.90
4896;DHT22;2463;49.948;8.472;2022-08-01T16:27:51;25.30;99.90
4896;DHT22;2463;49.948;8.472;2022-08-01T16:30:17;25.50;99.90
4896;DHT22;2463;49.948;8.472;2022-08-01T16:32:45;25.60;99.90
4896;DHT22;2463;49.948;8.472;2022-08-01T16:35:25;25.60;99.90
4896;DHT22;2463;49.948;8.472;2022-08-01T16:38:03;25.70;99.90
4896;DHT22;2463;49.948;8.472;2022-08-01T16:40:30;25.80;99.90
4896;DHT22;2463;49.948;8.472;2022-08-01T16:43:13;25.80;99.90
4896;DHT22;2463;49.948;8.472;2022-08-01T16:45:39;25.90;99.90
4896;DHT22;2463;49.948;8.472;2022-08-01T16:48:09;25.80;99.90
4896;DHT22;2463;49.948;8.472;2022-08-01T16:50:38;25.80;99.90
4896;DHT22;2463;49.948;8.472;2022-08-01T16:53:04;25.60;99.90
4896;DHT22;2463;49.948;8.472;2022-08-01T16:55:31;25.70;99.90
4896;DHT22;2463;49.948;8.472;2022-08-01T16:58:19;25.60;99.90
4896;DHT22;2463;49.948;8.472;2022-08-01T17:00:55;25.60;99.90